Time;durP1;ratioP1;P1;durP2;ratioP2;P2;SDS_P1;SDS_P2;PMS_P1;PMS_P2;Temp;Humidity;BMP_temperature;BMP_pressure;BME280_temperature;BME280_humidity;BME280_pressure;Samples;Min_cycle;Max_cycle;Signal;HPM_P1;HPM_P2
2024/01/23 00:01:46;;;;;;;7.80;3.57;;;;;;;6.21;95.41;100485.31;5032121;28;20720;-82
2024/01/23 00:04:13;;;;;;;9.50;3.50;;;;;;;6.22;94.72;100485.22;5026466;28;20206;-82
2024/01/23 00:06:39;;;;;;;9.83;3.73;;;;;;;6.23;94.85;100500.16;5028733;28;20575;-82
2024/01/23 00:09:06;;;;;;;7.77;3.03;;;;;;;6.25;94.52;100498.31;5029203;28;20770;-82
2024/01/23 00:11:34;;;;;;;7.97;3.03;;;;;;;6.34;94.13;100498.78;5031034;28;20226;-82
2024/01/23 00:14:00;;;;;;;10.97;3.40;;;;;;;6.38;93.57;100484.47;5024670;28;20202;-82
2024/01/23 00:16:27;;;;;;;7.43;3.10;;;;;;;6.38;94.18;100493.28;5028327;28;20298;-82
2024/01/23 00:18:53;;;;;;;8.47;2.50;;;;;;;6.39;93.24;100504.72;5031335;28;20206;-82
2024/01/23 00:21:19;;;;;;;6.07;2.50;;;;;;;6.36;93.67;100491.63;5024999;28;20728;-82
2024/01/23 00:23:46;;;;;;;7.40;2.00;;;;;;;6.33;93.20;100483.84;5026647;28;20209;-82
2024/01/23 00:26:12;;;;;;;4.07;1.70;;;;;;;6.30;92.21;100495.41;5034622;28;20213;-82
2024/01/23 00:28:40;;;;;;;5.60;1.60;;;;;;;6.25;91.86;100495.66;5032575;28;20210;-82
2024/01/23 00:31:07;;;;;;;7.33;2.03;;;;;;;6.21;92.18;100499.38;5026363;28;20706;-82
2024/01/23 00:33:34;;;;;;;5.60;1.90;;;;;;;6.17;92.51;100500.44;5033260;28;20575;-82
2024/01/23 00:36:00;;;;;;;5.50;1.33;;;;;;;6.16;92.71;100503.16;5026611;28;20215;-81
2024/01/23 00:38:27;;;;;;;4.27;1.50;;;;;;;6.14;92.79;100500.59;5027739;28;20207;-82
2024/01/23 00:40:53;;;;;;;6.63;1.80;;;;;;;6.13;93.20;100511.22;5029743;28;20244;-82
2024/01/23 00:43:20;;;;;;;7.57;1.43;;;;;;;6.11;93.91;100515.72;5022190;28;20207;-82
2024/01/23 00:45:47;;;;;;;7.53;1.90;;;;;;;6.10;93.27;100522.81;5030519;28;20209;-83
2024/01/23 00:48:14;;;;;;;5.77;1.57;;;;;;;6.09;92.72;100520.25;5029915;28;20205;-82
2024/01/23 00:50:40;;;;;;;4.83;1.70;;;;;;;6.06;92.34;100521.25;5030778;28;20215;-82
2024/01/23 00:53:07;;;;;;;5.40;1.67;;;;;;;6.03;92.53;100516.13;5029125;28;20221;-82
2024/01/23 00:55:34;;;;;;;3.17;1.10;;;;;;;6.01;92.60;100517.97;5026600;28;20203;-82
2024/01/23 00:58:01;;;;;;;3.53;1.10;;;;;;;5.99;92.25;100530.41;5029635;28;20203;-82
2024/01/23 01:00:27;;;;;;;4.97;1.20;;;;;;;5.93;92.12;100518.31;5028025;28;20221;-82
2024/01/23 01:02:55;;;;;;;3.83;1.30;;;;;;;5.88;92.53;100538.84;5026471;28;20891;-82
2024/01/23 01:05:22;;;;;;;4.40;2.00;;;;;;;5.88;92.24;100540.59;5027762;28;21420;-82
2024/01/23 01:07:48;;;;;;;5.13;1.30;;;;;;;5.83;92.27;100540.78;5025307;28;20206;-83
2024/01/23 01:10:15;;;;;;;3.93;1.10;;;;;;;5.80;91.95;100543.56;5031155;28;20208;-82
2024/01/23 01:12:41;;;;;;;12.07;1.60;;;;;;;5.79;91.98;100546.28;5031254;28;20209;-82
2024/01/23 01:15:09;;;;;;;3.70;1.33;;;;;;;5.73;91.42;100563.25;5025071;28;20206;-82
2024/01/23 01:17:36;;;;;;;5.13;1.30;;;;;;;5.70;91.73;100557.28;5026910;28;21922;-82
2024/01/23 01:20:04;;;;;;;3.17;0.97;;;;;;;5.67;91.79;100560.91;5031154;28;20232;-82
2024/01/23 01:22:31;;;;;;;2.97;1.30;;;;;;;5.65;92.24;100580.38;5026187;28;20199;-82
2024/01/23 01:24:57;;;;;;;2.50;1.03;;;;;;;5.64;92.46;100583.94;5026450;28;20633;-82
2024/01/23 01:27:24;;;;;;;5.07;1.07;;;;;;;5.60;93.04;100580.59;5032238;28;20210;-82
2024/01/23 01:29:50;;;;;;;4.57;1.30;;;;;;;5.55;93.92;100586.06;5032739;28;20662;-82
2024/01/23 01:32:16;;;;;;;5.37;1.80;;;;;;;5.52;93.91;100586.22;5029344;28;21041;-82
2024/01/23 01:34:43;;;;;;;4.00;1.00;;;;;;;5.51;94.35;100603.00;5031814;28;20729;-82
2024/01/23 01:37:11;;;;;;;6.10;1.30;;;;;;;5.49;94.67;100606.63;5027444;28;20663;-82
2024/01/23 01:39:38;;;;;;;6.47;1.63;;;;;;;5.46;95.09;100604.97;5027623;28;20892;-82
2024/01/23 01:42:05;;;;;;;5.83;1.70;;;;;;;5.44;95.09;100614.72;5023565;28;20230;-82
2024/01/23 01:44:32;;;;;;;5.87;1.50;;;;;;;5.45;95.48;100607.66;5026558;28;20202;-82
2024/01/23 01:46:59;;;;;;;6.67;1.33;;;;;;;5.42;95.53;100600.72;5026829;28;20206;-82
2024/01/23 01:49:26;;;;;;;3.77;1.40;;;;;;;5.40;95.77;100605.22;5026246;28;20206;-82
2024/01/23 01:51:54;;;;;;;8.50;1.40;;;;;;;5.43;95.95;100612.16;5026066;28;20225;-82
2024/01/23 01:54:22;;;;;;;8.93;1.87;;;;;;;5.39;96.46;100584.16;5029663;28;20202;-82
2024/01/23 01:56:51;;;;;;;5.70;1.37;;;;;;;5.37;96.79;100612.44;5030128;28;20203;-82
2024/01/23 01:59:18;;;;;;;8.70;2.80;;;;;;;5.36;96.88;100619.50;5026758;28;20205;-82
2024/01/23 02:01:46;;;;;;;4.87;1.23;;;;;;;5.36;97.10;100618.63;5029683;28;20226;-81
2024/01/23 02:04:12;;;;;;;6.37;1.87;;;;;;;5.38;97.45;100611.47;5027603;28;20214;-82
2024/01/23 02:06:39;;;;;;;6.63;1.53;;;;;;;5.39;98.00;100613.19;5026151;28;20202;-82
2024/01/23 02:09:06;;;;;;;9.63;1.77;;;;;;;5.42;97.72;100607.78;5033769;28;20202;-82
2024/01/23 02:11:34;;;;;;;7.00;2.13;;;;;;;5.43;97.90;100618.28;5033940;28;20218;-81
2024/01/23 02:14:00;;;;;;;4.93;1.57;;;;;;;5.43;97.76;100615.66;5029654;28;20591;-82
2024/01/23 02:16:27;;;;;;;7.67;1.97;;;;;;;5.45;97.91;100621.72;5030927;28;20217;-82
2024/01/23 02:18:53;;;;;;;7.47;2.60;;;;;;;5.45;98.17;100623.50;5031534;28;20301;-82
2024/01/23 02:21:20;;;;;;;11.50;2.20;;;;;;;5.47;97.99;100638.38;5032687;28;20236;-82
2024/01/23 02:23:48;;;;;;;4.60;1.83;;;;;;;5.50;98.10;100647.97;5027464;28;20217;-82
2024/01/23 02:26:15;;;;;;;7.40;1.83;;;;;;;5.51;98.22;100642.63;5034616;28;20205;-82
2024/01/23 02:28:42;;;;;;;8.93;1.80;;;;;;;5.54;97.88;100631.06;5032210;28;20206;-82
2024/01/23 02:31:08;;;;;;;7.03;1.70;;;;;;;5.57;97.54;100636.19;5031250;28;20225;-82
2024/01/23 02:33:35;;;;;;;10.30;1.67;;;;;;;5.57;97.66;100634.41;5031634;28;20210;-82
2024/01/23 02:36:01;;;;;;;9.63;2.10;;;;;;;5.59;97.53;100644.91;5028136;28;20582;-82
2024/01/23 02:38:27;;;;;;;10.17;2.13;;;;;;;5.61;96.92;100644.84;5031419;28;20335;-82
2024/01/23 02:40:56;;;;;;;8.27;1.80;;;;;;;5.62;96.91;100644.78;5028999;28;20240;-82
2024/01/23 02:43:22;;;;;;;12.30;2.40;;;;;;;5.63;96.71;100650.94;5033401;28;20206;-81
2024/01/23 02:45:49;;;;;;;8.87;2.40;;;;;;;5.61;96.66;100653.63;5031210;28;20198;-82
2024/01/23 02:48:15;;;;;;;15.67;2.47;;;;;;;5.60;96.32;100665.13;5035429;28;20278;-82
2024/01/23 02:50:42;;;;;;;11.47;3.30;;;;;;;5.60;95.71;100670.41;5024697;28;20222;-81
2024/01/23 02:53:08;;;;;;;11.47;2.60;;;;;;;5.59;94.79;100669.53;5027611;28;20202;-81
2024/01/23 02:55:34;;;;;;;12.60;2.63;;;;;;;5.59;94.51;100672.19;5025379;28;20206;-81
2024/01/23 02:58:02;;;;;;;10.00;2.17;;;;;;;5.61;93.75;100665.97;5039465;28;20722;-81
2024/01/23 03:00:29;;;;;;;12.17;2.40;;;;;;;5.60;93.47;100667.75;5034785;28;20232;-82
2024/01/23 03:02:55;;;;;;;6.60;1.80;;;;;;;5.63;92.64;100672.06;5031210;28;20203;-82
2024/01/23 03:05:22;;;;;;;9.93;2.47;;;;;;;5.60;92.82;100662.47;5034692;28;20206;-82
2024/01/23 03:07:50;;;;;;;11.10;2.67;;;;;;;5.62;92.71;100665.91;5031872;28;20730;-82
2024/01/23 03:10:17;;;;;;;9.47;2.27;;;;;;;5.64;92.71;100685.22;5031198;28;20218;-81
2024/01/23 03:12:44;;;;;;;11.67;2.70;;;;;;;5.65;92.27;100678.16;5038211;28;20210;-82
2024/01/23 03:15:11;;;;;;;11.67;2.63;;;;;;;5.67;92.16;100689.50;5026181;28;20206;-82
2024/01/23 03:17:38;;;;;;;15.53;2.60;;;;;;;5.64;92.41;100703.72;5036240;28;20675;-83
2024/01/23 03:20:06;;;;;;;10.87;1.93;;;;;;;5.63;92.59;100709.06;5027216;28;20218;-82
2024/01/23 03:22:32;;;;;;;8.30;1.87;;;;;;;5.62;92.06;100717.91;5028567;28;20710;-82
2024/01/23 03:25:00;;;;;;;8.43;1.90;;;;;;;5.62;92.15;100721.41;5028171;28;20217;-82
2024/01/23 03:27:26;;;;;;;8.57;2.73;;;;;;;5.59;92.88;100732.94;5035477;28;20209;-82
2024/01/23 03:29:53;;;;;;;10.57;2.77;;;;;;;5.59;92.45;100730.31;5030540;28;20210;-81
2024/01/23 03:32:21;;;;;;;9.80;1.80;;;;;;;5.57;92.27;100732.16;5029286;28;20218;-82
2024/01/23 03:34:49;;;;;;;7.27;1.60;;;;;;;5.54;92.58;100731.44;5031417;28;20207;-82
2024/01/23 03:37:15;;;;;;;10.90;2.20;;;;;;;5.53;92.47;100754.38;5033579;28;20207;-81
2024/01/23 03:39:42;;;;;;;9.37;2.50;;;;;;;5.55;92.11;100754.31;5031723;28;20202;-81
2024/01/23 03:42:09;;;;;;;13.93;2.47;;;;;;;5.54;91.74;100753.44;5029608;28;20253;-82
2024/01/23 03:44:35;;;;;;;15.60;2.30;;;;;;;5.51;91.90;100750.91;5031643;28;20210;-82
2024/01/23 03:47:02;;;;;;;12.03;2.50;;;;;;;5.50;91.85;100759.75;5029016;28;20198;-81
2024/01/23 03:49:30;;;;;;;10.30;2.60;;;;;;;5.52;92.17;100776.41;5028551;28;20950;-82
2024/01/23 03:51:56;;;;;;;13.13;3.30;;;;;;;5.54;93.03;100773.72;5034794;28;20280;-82
2024/01/23 03:54:23;;;;;;;12.97;2.37;;;;;;;5.59;94.07;100779.66;5030838;28;20198;-82
2024/01/23 03:56:49;;;;;;;9.37;2.10;;;;;;;5.61;94.35;100782.22;5029874;28;20202;-82
2024/01/23 03:59:16;;;;;;;9.73;2.60;;;;;;;5.62;94.79;100781.31;5028677;28;20213;-82
2024/01/23 04:01:42;;;;;;;8.53;2.10;;;;;;;5.58;95.24;100797.28;5028478;28;20226;-82
2024/01/23 04:04:08;;;;;;;10.60;3.03;;;;;;;5.56;95.57;100798.25;5026892;28;20214;-82
2024/01/23 04:06:36;;;;;;;10.93;3.60;;;;;;;5.61;95.58;100803.38;5029894;28;20224;-82
2024/01/23 04:09:03;;;;;;;10.07;3.33;;;;;;;5.60;95.58;100794.56;5034803;28;20219;-82
2024/01/23 04:11:30;;;;;;;12.60;2.53;;;;;;;5.58;94.96;100802.56;5028944;28;20229;-82
2024/01/23 04:13:57;;;;;;;7.50;1.80;;;;;;;5.59;94.13;100820.13;5029966;28;20225;-82
2024/01/23 04:16:23;;;;;;;11.43;2.07;;;;;;;5.58;93.91;100813.13;5032403;28;20217;-82
2024/01/23 04:18:54;;;;;;;13.40;3.10;;;;;;;5.56;93.43;100817.63;5028751;28;20207;-82
2024/01/23 04:21:20;;;;;;;10.13;2.40;;;;;;;5.59;93.23;100816.63;5029232;28;20296;-82
2024/01/23 04:23:48;;;;;;;9.63;1.60;;;;;;;5.59;93.23;100830.72;5039320;28;20210;-82
2024/01/23 04:26:18;;;;;;;10.07;3.23;;;;;;;5.56;93.13;100825.53;5028588;28;20214;-82
2024/01/23 04:28:44;;;;;;;7.97;2.80;;;;;;;5.57;93.21;100829.91;5034593;28;20214;-82
2024/01/23 04:31:11;;;;;;;8.13;1.93;;;;;;;5.56;93.12;100825.53;5029747;28;20226;-82
2024/01/23 04:33:37;;;;;;;12.00;2.43;;;;;;;5.57;92.01;100836.97;5029372;28;20312;-82
2024/01/23 04:36:05;;;;;;;8.33;1.87;;;;;;;5.56;91.26;100851.97;5033478;28;20581;-82
2024/01/23 04:38:31;;;;;;;8.17;2.37;;;;;;;5.56;90.72;100856.38;5028422;28;20210;-82
2024/01/23 04:40:59;;;;;;;13.00;2.43;;;;;;;5.53;90.68;100867.97;5031274;28;20236;-82
2024/01/23 04:43:25;;;;;;;10.50;2.07;;;;;;;5.51;90.82;100875.09;5022956;28;20202;-83
2024/01/23 04:45:52;;;;;;;6.97;1.83;;;;;;;5.54;90.77;100868.81;5035627;28;20213;-82
2024/01/23 04:48:18;;;;;;;8.27;1.47;;;;;;;5.56;90.81;100883.66;5027985;28;20206;-83
2024/01/23 04:50:45;;;;;;;9.23;2.27;;;;;;;5.58;91.32;100900.31;5029529;28;20226;-83
2024/01/23 04:53:11;;;;;;;9.57;2.23;;;;;;;5.56;91.35;100901.28;5028594;28;20201;-82
2024/01/23 04:55:38;;;;;;;7.77;1.90;;;;;;;5.53;91.46;100902.31;5020729;28;20207;-83
2024/01/23 04:58:06;;;;;;;8.10;2.13;;;;;;;5.51;91.77;100905.91;5026291;28;20541;-82
2024/01/23 05:00:32;;;;;;;7.43;2.27;;;;;;;5.52;92.02;100911.16;5027584;28;20612;-82
2024/01/23 05:02:59;;;;;;;6.70;1.60;;;;;;;5.49;91.45;100908.63;5029099;28;20726;-82
2024/01/23 05:05:25;;;;;;;12.03;1.77;;;;;;;5.48;91.42;100917.47;5023688;28;21233;-82
2024/01/23 05:07:52;;;;;;;8.77;1.57;;;;;;;5.52;91.50;100918.22;5028382;28;20667;-81
2024/01/23 05:10:17;;;;;;;11.03;2.27;;;;;;;5.52;91.19;100927.00;5030075;28;20217;-82
2024/01/23 05:12:43;;;;;;;10.03;2.00;;;;;;;5.56;90.97;100941.78;5030927;28;20205;-81
2024/01/23 05:15:12;;;;;;;5.40;1.67;;;;;;;5.55;90.88;100947.16;5027118;28;20215;-81
2024/01/23 05:17:37;;;;;;;7.20;2.33;;;;;;;5.54;91.33;100958.66;5026878;28;20577;-82
2024/01/23 05:20:05;;;;;;;9.57;2.60;;;;;;;5.56;91.06;100962.06;5028826;28;20218;-81
2024/01/23 05:22:32;;;;;;;10.80;3.00;;;;;;;5.56;90.86;100970.84;5027059;28;20210;-82
2024/01/23 05:24:58;;;;;;;13.60;2.27;;;;;;;5.56;90.91;100978.78;5025556;28;20596;-82
2024/01/23 05:27:26;;;;;;;8.30;1.97;;;;;;;5.56;90.91;100986.69;5026492;28;20627;-82
2024/01/23 05:29:52;;;;;;;10.90;2.80;;;;;;;5.56;91.27;100986.69;5028618;28;20286;-82
2024/01/23 05:32:20;;;;;;;8.83;2.40;;;;;;;5.56;91.43;100984.06;5024169;28;20226;-82
2024/01/23 05:34:47;;;;;;;10.57;2.43;;;;;;;5.56;91.36;100994.63;5028399;28;20945;-82
2024/01/23 05:37:13;;;;;;;10.70;2.77;;;;;;;5.62;91.56;100998.81;5024364;28;20207;-82
2024/01/23 05:39:40;;;;;;;13.73;3.07;;;;;;;5.61;91.04;100985.69;5028460;28;20202;-82
2024/01/23 05:42:07;;;;;;;14.77;2.40;;;;;;;5.62;91.31;100992.69;5026101;28;20233;-82
2024/01/23 05:44:33;;;;;;;14.50;2.50;;;;;;;5.65;91.05;101000.50;5028734;28;20222;-82
2024/01/23 05:47:00;;;;;;;8.93;2.00;;;;;;;5.68;91.15;101003.91;5025961;28;20236;-82
2024/01/23 05:49:27;;;;;;;10.70;2.43;;;;;;;5.69;91.06;101007.41;5026514;28;20213;-82
2024/01/23 05:51:54;;;;;;;14.03;2.50;;;;;;;5.67;91.06;101018.03;5029131;28;20214;-82
2024/01/23 05:54:20;;;;;;;9.37;3.40;;;;;;;5.70;90.49;101009.13;5027775;28;20214;-82
2024/01/23 05:56:47;;;;;;;9.87;2.10;;;;;;;5.72;90.02;101021.38;5026118;28;20198;-82
2024/01/23 05:59:13;;;;;;;10.93;2.37;;;;;;;5.71;90.48;101026.72;5027385;28;20213;-82
2024/01/23 06:01:40;;;;;;;10.57;2.53;;;;;;;5.71;90.31;101024.06;5027582;28;20230;-82
2024/01/23 06:04:08;;;;;;;8.43;2.97;;;;;;;5.69;90.05;101018.84;5027131;28;20213;-82
2024/01/23 06:06:39;;;;;;;12.03;2.20;;;;;;;5.72;90.26;101034.59;5026740;28;20206;-82
2024/01/23 06:09:07;;;;;;;14.40;2.60;;;;;;;5.71;90.08;101045.22;5028884;28;20217;-82
2024/01/23 06:11:33;;;;;;;12.43;2.37;;;;;;;5.75;90.35;101046.78;5027988;28;20218;-82
2024/01/23 06:14:00;;;;;;;11.97;2.77;;;;;;;5.74;90.07;101045.94;5031298;28;20205;-82
2024/01/23 06:16:26;;;;;;;10.97;3.10;;;;;;;5.78;89.40;101044.03;5027445;28;20225;-83
2024/01/23 06:18:53;;;;;;;10.43;3.30;;;;;;;5.80;89.61;101044.84;5032505;28;20217;-85
2024/01/23 06:21:19;;;;;;;10.30;2.33;;;;;;;5.77;89.58;101059.03;5020766;28;20244;-84
2024/01/23 06:23:47;;;;;;;11.83;2.40;;;;;;;5.76;89.74;101059.94;5024750;28;20210;-81
2024/01/23 06:26:14;;;;;;;12.33;2.90;;;;;;;5.77;89.22;101072.25;5023322;28;20290;-81
2024/01/23 06:28:40;;;;;;;14.63;2.57;;;;;;;5.78;88.79;101073.97;5021726;28;20209;-81
2024/01/23 06:31:06;;;;;;;9.30;2.50;;;;;;;5.79;88.28;101082.78;5026564;28;20706;-81
2024/01/23 06:33:33;;;;;;;13.93;3.07;;;;;;;5.76;88.36;101077.59;5024789;28;20198;-82
2024/01/23 06:35:59;;;;;;;13.43;3.17;;;;;;;5.77;88.26;101093.38;5026549;28;20209;-81
2024/01/23 06:38:26;;;;;;;12.77;2.77;;;;;;;5.80;88.13;101092.44;5032961;28;20214;-82
2024/01/23 06:40:55;;;;;;;14.23;2.37;;;;;;;5.75;88.40;101095.22;5034542;28;20760;-83
2024/01/23 06:43:21;;;;;;;10.20;2.93;;;;;;;5.75;88.77;101094.38;5032066;28;20705;-83
2024/01/23 06:45:48;;;;;;;10.30;2.43;;;;;;;5.74;88.82;101109.34;5030148;28;20210;-83
2024/01/23 06:48:14;;;;;;;9.40;2.30;;;;;;;5.75;88.95;101126.94;5038650;28;20277;-81
2024/01/23 06:50:41;;;;;;;13.93;2.30;;;;;;;5.77;89.49;101118.97;5032304;28;20585;-83
2024/01/23 06:53:07;;;;;;;11.40;2.60;;;;;;;5.76;89.62;101130.44;5038632;28;20229;-82
2024/01/23 06:55:34;;;;;;;11.40;2.80;;;;;;;5.78;89.69;101134.75;5037145;28;20212;-81
2024/01/23 06:58:01;;;;;;;14.93;2.83;;;;;;;5.76;89.75;101133.09;5026566;28;20210;-82
2024/01/23 07:00:28;;;;;;;12.07;3.00;;;;;;;5.77;90.06;101140.09;5027488;28;20671;-82
2024/01/23 07:02:55;;;;;;;13.17;2.60;;;;;;;5.80;90.01;101134.72;5021739;28;20260;-81
2024/01/23 07:05:21;;;;;;;13.07;3.20;;;;;;;5.84;89.50;101133.69;5035298;28;20260;-82
2024/01/23 07:07:48;;;;;;;13.90;3.23;;;;;;;5.86;89.45;101145.06;5033886;28;20610;-82
2024/01/23 07:10:14;;;;;;;9.93;2.60;;;;;;;5.88;88.95;101138.84;5033797;28;20692;-81
2024/01/23 07:12:41;;;;;;;12.90;3.00;;;;;;;5.90;89.14;101141.44;5026264;28;20218;-82
2024/01/23 07:15:09;;;;;;;9.53;3.13;;;;;;;5.89;89.64;101145.88;5027958;28;20206;-82
2024/01/23 07:17:36;;;;;;;10.10;2.57;;;;;;;5.92;89.46;101153.66;5030382;28;20218;-82
2024/01/23 07:20:04;;;;;;;12.63;3.30;;;;;;;5.91;89.36;101159.88;5033388;28;20210;-82
2024/01/23 07:22:31;;;;;;;13.83;3.60;;;;;;;5.91;88.73;101170.44;5029871;28;20218;-81
2024/01/23 07:25:02;;;;;;;16.00;3.27;;;;;;;5.91;88.72;101169.59;5030531;28;20206;-81
2024/01/23 07:27:28;;;;;;;11.03;3.33;;;;;;;5.91;88.84;101186.28;5029705;28;20202;-82
2024/01/23 07:29:54;;;;;;;11.77;3.87;;;;;;;5.93;88.64;101191.53;5028042;28;20214;-82
2024/01/23 07:32:22;;;;;;;11.93;3.47;;;;;;;5.93;88.94;101200.34;5037893;28;20232;-82
2024/01/23 07:34:49;;;;;;;11.73;2.53;;;;;;;5.95;88.65;101200.28;5036032;28;20198;-82
2024/01/23 07:37:15;;;;;;;7.13;2.70;;;;;;;5.98;88.19;101205.47;5029684;28;20214;-82
2024/01/23 07:39:42;;;;;;;14.10;3.10;;;;;;;5.99;88.00;101223.06;5028569;28;20202;-83
2024/01/23 07:42:08;;;;;;;13.23;4.03;;;;;;;6.01;88.22;101217.72;5028309;28;21822;-82
2024/01/23 07:44:39;;;;;;;8.33;2.40;;;;;;;6.01;87.35;101239.72;5030580;28;20683;-82
2024/01/23 07:47:07;;;;;;;11.27;2.90;;;;;;;6.01;87.87;101236.22;5031813;28;20210;-82
2024/01/23 07:49:35;;;;;;;8.90;2.33;;;;;;;6.01;88.73;101249.44;5031591;28;20567;-82
2024/01/23 07:52:01;;;;;;;17.27;3.83;;;;;;;6.04;89.45;101252.00;5031151;28;20229;-83
2024/01/23 07:54:28;;;;;;;10.90;2.73;;;;;;;6.06;89.17;101252.81;5036098;28;20209;-83
2024/01/23 07:56:55;;;;;;;11.47;3.60;;;;;;;6.03;90.03;101261.69;5028683;28;20684;-82
2024/01/23 07:59:21;;;;;;;14.67;2.63;;;;;;;6.04;89.38;101257.28;5026976;28;20305;-82
2024/01/23 08:01:48;;;;;;;12.57;3.20;;;;;;;6.05;89.91;101256.38;5031225;28;20234;-82
2024/01/23 08:04:14;;;;;;;13.60;3.33;;;;;;;6.04;89.93;101267.84;5024979;28;20210;-82
2024/01/23 08:06:42;;;;;;;11.93;3.10;;;;;;;6.02;89.97;101278.47;5024812;28;20221;-82
2024/01/23 08:09:09;;;;;;;13.87;2.80;;;;;;;6.03;89.85;101274.06;5033995;28;20210;-83
2024/01/23 08:11:35;;;;;;;15.37;3.90;;;;;;;6.03;89.48;101280.22;5029307;28;20234;-82
2024/01/23 08:14:03;;;;;;;12.67;3.37;;;;;;;6.07;89.95;101280.97;5029665;28;20206;-82
2024/01/23 08:16:29;;;;;;;12.73;2.93;;;;;;;6.08;90.25;101283.56;5031055;28;20214;-82
2024/01/23 08:18:58;;;;;;;16.33;3.67;;;;;;;6.08;90.05;101288.00;5030986;28;20209;-81
2024/01/23 08:21:25;;;;;;;20.93;4.90;;;;;;;6.06;90.48;101279.25;5035289;28;20234;-83
2024/01/23 08:23:52;;;;;;;10.83;4.37;;;;;;;6.04;90.05;101281.94;5032941;28;20234;-82
2024/01/23 08:26:19;;;;;;;12.50;3.00;;;;;;;6.04;89.79;101289.00;5028950;28;20214;-83
2024/01/23 08:28:45;;;;;;;12.33;3.53;;;;;;;6.06;90.05;101297.75;5030014;28;20207;-81
2024/01/23 08:31:12;;;;;;;10.57;3.30;;;;;;;6.06;90.05;101292.47;5038722;28;20225;-82
2024/01/23 08:33:39;;;;;;;16.07;3.50;;;;;;;6.06;89.45;101297.75;5025701;28;20205;-82
2024/01/23 08:36:06;;;;;;;12.77;3.47;;;;;;;6.07;90.09;101310.94;5028566;28;20212;-81
2024/01/23 08:38:32;;;;;;;11.57;3.17;;;;;;;6.09;89.58;101324.94;5023175;28;20229;-82
2024/01/23 08:41:00;;;;;;;16.57;3.37;;;;;;;6.08;89.95;101336.47;5025136;28;20229;-82
2024/01/23 08:43:27;;;;;;;12.37;3.13;;;;;;;6.08;90.02;101336.47;5028507;28;20229;-81
2024/01/23 08:45:53;;;;;;;15.10;3.20;;;;;;;6.11;89.82;101349.53;5032226;28;20213;-81
2024/01/23 08:48:22;;;;;;;14.73;3.03;;;;;;;6.10;90.43;101355.75;5033456;28;20206;-82
2024/01/23 08:50:50;;;;;;;12.07;3.57;;;;;;;6.10;90.43;101362.81;5040694;28;20229;-81
2024/01/23 08:53:16;;;;;;;16.37;3.17;;;;;;;6.06;90.72;101379.72;5030480;28;20210;-81
2024/01/23 08:55:43;;;;;;;17.00;2.90;;;;;;;6.06;90.96;101380.59;5026581;28;20697;-81
2024/01/23 08:58:11;;;;;;;11.17;3.10;;;;;;;6.05;91.54;101392.09;5029369;28;20203;-81
2024/01/23 09:00:37;;;;;;;19.07;4.07;;;;;;;6.08;92.07;101396.41;5033272;28;20237;-80
2024/01/23 09:03:04;;;;;;;15.67;3.40;;;;;;;6.04;93.09;101400.94;5038495;28;20225;-82
2024/01/23 09:05:31;;;;;;;13.03;3.70;;;;;;;6.04;93.10;101411.50;5022763;28;20210;-82
2024/01/23 09:07:57;;;;;;;10.10;3.00;;;;;;;6.06;93.59;101417.63;5034256;28;20219;-82
2024/01/23 09:10:24;;;;;;;14.13;4.47;;;;;;;6.07;93.83;101426.41;5020350;28;20211;-81
2024/01/23 09:12:50;;;;;;;14.60;3.43;;;;;;;6.04;93.89;101427.38;5032907;28;20198;-82
2024/01/23 09:15:18;;;;;;;16.30;3.80;;;;;;;6.06;94.46;101440.56;5025987;28;20694;-83
2024/01/23 09:17:45;;;;;;;16.97;3.40;;;;;;;6.09;94.67;101437.81;5028806;28;20206;-82
2024/01/23 09:20:12;;;;;;;15.43;3.87;;;;;;;6.10;94.01;101444.81;5025945;28;20221;-83
2024/01/23 09:22:39;;;;;;;22.10;4.47;;;;;;;6.12;94.73;101448.25;5030035;28;20230;-82
2024/01/23 09:25:06;;;;;;;10.00;2.93;;;;;;;6.11;94.68;101450.03;5029095;28;20304;-83
2024/01/23 09:27:32;;;;;;;13.20;3.20;;;;;;;6.09;94.80;101459.81;5035423;28;20202;-83
2024/01/23 09:29:59;;;;;;;14.23;3.03;;;;;;;6.11;95.37;101454.47;5031889;28;20842;-83
2024/01/23 09:32:26;;;;;;;10.73;3.67;;;;;;;6.10;95.04;101458.03;5028676;28;20701;-82
2024/01/23 09:34:53;;;;;;;13.63;3.03;;;;;;;6.10;96.22;101463.31;5035824;28;20272;-82
2024/01/23 09:37:19;;;;;;;10.30;3.30;;;;;;;6.12;96.19;101475.56;5033849;28;20206;-82
2024/01/23 09:39:46;;;;;;;17.97;3.37;;;;;;;6.12;96.02;101466.78;5033028;28;20305;-83
2024/01/23 09:42:12;;;;;;;14.07;4.10;;;;;;;6.10;95.62;101471.25;5031332;28;20249;-83
2024/01/23 09:44:40;;;;;;;20.33;3.53;;;;;;;6.09;96.20;101472.19;5032634;28;20240;-82
2024/01/23 09:47:07;;;;;;;14.13;3.10;;;;;;;6.13;96.27;101472.03;5027390;28;20210;-83
2024/01/23 09:49:36;;;;;;;15.57;3.90;;;;;;;6.14;96.01;101467.59;5030698;28;20202;-82
2024/01/23 09:52:05;;;;;;;14.10;4.60;;;;;;;6.19;95.53;101476.25;5034467;28;20230;-83
2024/01/23 09:54:32;;;;;;;11.83;3.30;;;;;;;6.23;94.62;101476.13;5035141;28;20212;-82
2024/01/23 09:56:58;;;;;;;12.43;3.20;;;;;;;6.21;94.73;101470.00;5033822;28;20666;-82
2024/01/23 09:59:25;;;;;;;16.67;3.57;;;;;;;6.22;95.23;101473.53;5029772;28;20210;-82
2024/01/23 10:01:53;;;;;;;17.63;3.40;;;;;;;6.21;95.07;101475.28;5026658;28;20237;-82
2024/01/23 10:04:21;;;;;;;19.57;4.03;;;;;;;6.25;94.17;101476.06;5033078;28;20240;-83
2024/01/23 10:06:49;;;;;;;11.83;3.40;;;;;;;6.27;94.05;101467.13;5042971;28;20221;-82
2024/01/23 10:09:16;;;;;;;14.30;4.27;;;;;;;6.26;93.78;101465.44;5042097;28;20293;-81
2024/01/23 10:11:42;;;;;;;11.13;2.83;;;;;;;6.32;93.35;101477.59;5033927;28;20226;-83
2024/01/23 10:14:09;;;;;;;15.37;3.17;;;;;;;6.32;93.10;101479.34;5032827;28;20595;-83
2024/01/23 10:16:39;;;;;;;18.13;3.10;;;;;;;6.34;92.70;101470.47;5030683;28;20237;-83
2024/01/23 10:19:09;;;;;;;12.83;3.37;;;;;;;6.37;92.57;101488.88;5036084;28;20212;-83
2024/01/23 10:21:35;;;;;;;18.93;4.13;;;;;;;6.37;92.47;101490.66;5043411;28;20230;-83
2024/01/23 10:24:04;;;;;;;18.83;3.07;;;;;;;6.38;92.19;101481.81;5032590;28;20741;-83
2024/01/23 10:26:33;;;;;;;17.17;4.40;;;;;;;6.42;91.96;101486.97;5028317;28;20630;-81
2024/01/23 10:29:00;;;;;;;19.17;3.30;;;;;;;6.47;91.72;101495.59;5027387;28;20210;-82
2024/01/23 10:31:27;;;;;;;16.07;3.97;;;;;;;6.47;91.52;101492.94;5031588;28;20233;-81
2024/01/23 10:33:53;;;;;;;9.43;2.90;;;;;;;6.48;91.49;101494.69;5036451;28;20550;-80
2024/01/23 10:36:21;;;;;;;12.30;3.07;;;;;;;6.48;91.09;101497.31;5034775;28;20215;-81
2024/01/23 10:38:50;;;;;;;18.67;3.83;;;;;;;6.53;90.84;101502.47;5030891;28;20209;-82
2024/01/23 10:41:19;;;;;;;13.40;3.83;;;;;;;6.54;90.00;101510.38;5042487;28;20232;-81
2024/01/23 10:43:48;;;;;;;20.07;4.17;;;;;;;6.56;89.59;101500.59;5030875;28;20681;-81
2024/01/23 10:46:14;;;;;;;17.40;4.80;;;;;;;6.58;90.02;101501.41;5036071;28;20206;-82
2024/01/23 10:48:41;;;;;;;16.20;5.27;;;;;;;6.62;89.91;101507.47;5036713;28;20202;-82
2024/01/23 10:51:17;;;;;;;20.73;4.17;;;;;;;6.66;89.93;101513.50;5033953;28;20226;-81
2024/01/23 10:53:54;;;;;;;13.80;3.80;;;;;;;6.68;89.34;101520.50;5027124;28;20209;-82
2024/01/23 10:56:23;;;;;;;15.53;4.30;;;;;;;6.70;88.72;101505.44;5028875;28;20661;-82
2024/01/23 10:59:04;;;;;;;10.37;4.20;;;;;;;6.71;88.36;101512.44;5031892;28;20210;-81
2024/01/23 11:01:33;;;;;;;18.50;4.27;;;;;;;6.74;88.11;101507.06;5036906;28;20237;-81
2024/01/23 11:04:00;;;;;;;13.73;3.73;;;;;;;6.77;88.51;101499.03;5026118;28;20300;-82
2024/01/23 11:06:30;;;;;;;12.77;3.53;;;;;;;6.81;89.22;101508.56;5030007;28;20221;-81
2024/01/23 11:09:03;;;;;;;20.00;4.13;;;;;;;6.82;86.93;101502.34;5034462;28;20212;-82
2024/01/23 11:11:37;;;;;;;18.73;3.80;;;;;;;6.84;87.65;101505.81;5031236;28;20835;-82
2024/01/23 11:14:10;;;;;;;14.87;3.73;;;;;;;6.86;87.67;101498.69;5032884;28;20213;-81
2024/01/23 11:16:37;;;;;;;18.00;3.90;;;;;;;6.90;87.57;101508.25;5031797;28;20198;-81
2024/01/23 11:19:03;;;;;;;18.37;4.37;;;;;;;6.92;87.66;101511.72;5030973;28;20233;-82
2024/01/23 11:21:30;;;;;;;15.77;3.33;;;;;;;6.95;87.64;101513.41;5025786;28;20250;-81
2024/01/23 11:24:00;;;;;;;19.37;3.87;;;;;;;6.97;87.83;101523.03;5029155;28;20226;-82
2024/01/23 11:26:27;;;;;;;16.67;3.97;;;;;;;7.02;87.28;101520.19;5031028;28;20208;-81
2024/01/23 11:29:05;;;;;;;13.90;4.00;;;;;;;7.06;85.89;101518.31;5028501;28;20210;-81